Yakutiye, Turkey

10:37 AM EEST on August 28, 2016 (GMT +0300)
Erzurum | | Change Station

Elev 5768 ft 39.96 °N, 41.17 °E | Updated 17 minutes ago

Clear
Clear
79 °F
Feels Like 79 °F
N
6
Wind Variable Wind from ESE

Today
High -- | Low -- °F
--% Chance of Precip.
Yesterday
High -- | Low -- °F
Precip. -- in
Pressure 30.18 in
Visibility -9999.0 miles
Clouds
Dew Point 32 °F
Humidity 18%
Rainfall 0.00 in
Snow Depth Not available.
5:39 AM 6:52 PM
Waning Crescent, 17% visible
METAR LTCE 280720Z 11005KT 020V190 CAVOK 26/M00 Q1022 BECMG FM0800 22012KT RMK RWY08R VRB04KT RWY26R 12006KT 050V210 RWY08L VRB04KT
Pressure 30.18 in
Visibility -9999.0 miles
Clouds
Dew Point 32 °F
Humidity 18%
Rainfall 0.00 in
Snow Depth Not available.
5:39 AM 6:52 PM
Waning Crescent, 17% visible
METAR LTCE 280720Z 11005KT 020V190 CAVOK 26/M00 Q1022 BECMG FM0800 22012KT RMK RWY08R VRB04KT RWY26R 12006KT 050V210 RWY08L VRB04KT

10-Day Weather Forecast

×

Almanac

Astronomy

Aug. 28, 2016 Rise Set
Actual Time
Civil Twilight
Nautical Twilight
Astronomical Twilight
Moon
Length of Visible Light
Length of Day
Tomorrow will be .
, % of the Moon is Illuminated

Today's Extremes

Country Highs Country Lows

Community

WunderPhotos

Upload Photos

1,935,533 photos uploaded!

WunderBlog® & News

Nearby

Air Quality

  Air Quality AQ Index Pollutant
Not available.

Snow Depth

Station Depth Elevation

Earthquake Activity

City Distance Mag. Time & Date
Minimum magnitude displayed is 2.5.

Coastal Water Temperatures

Place Temperature

Stations

Nearby Weather Stations

Station Location Temp. Windchill Dew Point Humidity Wind Precip. Elev Updated Type